Bangor, ME

4:57 PM EST on December 15, 2019 (GMT -0500)
Bangor | | Change Station
Active Advisory: Wind Advisory

Elev 138 ft 44.82 °N, 68.79 °W | Updated 5 seconds ago

Mostly Cloudy
Mostly Cloudy
37.6 °F
Feels Like 38 °F
N
2
Wind Variable Wind from NW
Gusts 3.4 mph

Today
High -- | Low -- °F
--% Chance of Precip.
Yesterday
High -- | Low -- °F
Precip. -- in
Pressure 29.50 in
Visibility 10.0 miles
Clouds Mostly Cloudy 6000 ft
Windchill 38 °F
Dew Point 24 °F
Humidity 57%
Rainfall 0.01 in
Snow Depth Not available.
7:05 AM 3:54 PM
Waning Gibbous, 84% visible
METAR KBGR 152153Z 27015G24KT 10SM BKN060 04/M06 A2950 RMK AO2 SLP990 T00391056
Pressure 29.50 in
Visibility 10.0 miles
Clouds Mostly Cloudy 6000 ft
Windchill 38 °F
Dew Point 24 °F
Humidity 57%
Rainfall 0.01 in
Snow Depth Not available.
7:05 AM 3:54 PM
Waning Gibbous, 84% visible
METAR KBGR 152153Z 27015G24KT 10SM BKN060 04/M06 A2950 RMK AO2 SLP990 T00391056

Get Your Daily Forecast Email!

Thanks for signing up!

Be on the lookout for a verification email in your inbox.

You'll start receiving severe weather alerts in your inbox..

×

10-Day Weather Forecast

Almanac

Astronomy

Dec. 15, 2019 Rise Set
Actual Time
Civil Twilight
Nautical Twilight
Astronomical Twilight
Moon
Length of Visible Light
Length of Day
Tomorrow will be .
, % of the Moon is Illuminated

Today's Extremes

State Highs State Lows

Community

WunderPhotos

Category 6

Welcome to Category 6. This is the collective home for Weather Underground's featured writeups by Dr. Jeff Masters (right), Bob Henson (left), Chris Burt, and other regular contributors.

Nearby

Air Quality

  Air Quality AQ Index Pollutant
Not available.

Snow Depth

Station Depth Elevation

Earthquake Activity

City Distance Mag. Time & Date
Minimum magnitude displayed is 2.5.

Coastal Water Temperatures

Place Temperature

Stations

Nearby Weather Stations

Station Location Temp. Windchill Dew Point Humidity Wind Precip. Elev Updated Type
                   

Watches & Warnings

Wind Advisory
Issued: 2:31 PM EST Dec. 15, 2019 – National Weather Service

... Wind Advisory remains in effect until 4 am EST Monday...

* what... west winds 15 to 25 mph with gusts up to 50 mph.

* Where... portions of Central Highlands, coastal downeast, far
eastern, far northern, interior downeast, North Woods and
Penobscot valley Maine.

* When... until 4 am EST Monday.

* Impacts... gusty winds will blow around unsecured objects. Tree
limbs could be blown down and scattered to numerous power
outages may result.

Precautionary/preparedness actions...

Use extra caution when driving, especially if operating a high
profile vehicle. Secure outdoor objects.